EZY34KN LEBL-EGPF
Flight info
| Callsign | EZY34KN |
|---|---|
| Flight time | N/A |
| Altitude | 32000 |
| Route | NATPI DCT EVNAM DCT TUPAR UY120 AKIKI UN867 VASUX DCT TNT UN57 POL UN601 RIBEL DCT ASLIB |
| Aircraft | A20N/M-SDE2E3FGHIRWXY/LB1 |
Departure
| Time | N/A |
|---|---|
| Airport | Josep Tarradellas Barcelona-El Prat Airport (LEBL) |
Arrival
| Time | 2026-04-28 13:09 |
|---|---|
| Airport | Glasgow Airport (EGPF) |
| Time | Latitude | Longitude | Altitude | Speed | Heading |
|---|---|---|---|---|---|
| 2026-04-28 11:59 | 49.11191 | -1.34537 | 32192 ft | 480 kts | 354° |
| 2026-04-28 12:00 | 49.17846 | -1.35518 | 32197 ft | 479 kts | 354° |
| 2026-04-28 12:00 | 49.24488 | -1.36500 | 32203 ft | 478 kts | 354° |
| 2026-04-28 12:01 | 49.31065 | -1.37475 | 32208 ft | 477 kts | 354° |
| 2026-04-28 12:01 | 49.37665 | -1.38456 | 32214 ft | 476 kts | 354° |
| 2026-04-28 12:02 | 49.44251 | -1.39439 | 32215 ft | 475 kts | 355° |
| 2026-04-28 12:02 | 49.50835 | -1.40424 | 32212 ft | 474 kts | 355° |
| 2026-04-28 12:03 | 49.57381 | -1.41398 | 32211 ft | 471 kts | 356° |
| 2026-04-28 12:03 | 49.63928 | -1.41224 | 32214 ft | 471 kts | 4° |
| 2026-04-28 12:04 | 49.70455 | -1.40654 | 32210 ft | 469 kts | 4° |
| 2026-04-28 12:04 | 49.76972 | -1.40094 | 32214 ft | 468 kts | 5° |
| 2026-04-28 12:05 | 49.83462 | -1.39522 | 32223 ft | 466 kts | 5° |
| 2026-04-28 12:05 | 49.89948 | -1.38946 | 32229 ft | 467 kts | 5° |
| 2026-04-28 12:06 | 49.96428 | -1.38365 | 32237 ft | 465 kts | 5° |
| 2026-04-28 12:06 | 50.02866 | -1.37329 | 32242 ft | 465 kts | 11° |
| 2026-04-28 12:07 | 50.09211 | -1.35744 | 32247 ft | 465 kts | 11° |
| 2026-04-28 12:07 | 50.15611 | -1.34166 | 32249 ft | 465 kts | 11° |
| 2026-04-28 12:08 | 50.20922 | -1.32846 | 32249 ft | 465 kts | 11° |
| 2026-04-28 12:08 | 50.27309 | -1.31250 | 32249 ft | 464 kts | 11° |
| 2026-04-28 12:09 | 50.33690 | -1.29650 | 32249 ft | 464 kts | 11° |
| 2026-04-28 12:09 | 50.40076 | -1.28044 | 32250 ft | 464 kts | 11° |
| 2026-04-28 12:10 | 50.46442 | -1.26441 | 32254 ft | 463 kts | 11° |
| 2026-04-28 12:10 | 50.52894 | -1.25949 | 32257 ft | 467 kts | 359° |
| 2026-04-28 12:11 | 50.59368 | -1.26927 | 32255 ft | 467 kts | 358° |
| 2026-04-28 12:11 | 50.65837 | -1.27895 | 32266 ft | 466 kts | 358° |
| 2026-04-28 12:12 | 50.72281 | -1.28881 | 32275 ft | 465 kts | 358° |
| 2026-04-28 12:12 | 50.78729 | -1.29880 | 32282 ft | 464 kts | 358° |
| 2026-04-28 12:13 | 50.85161 | -1.30884 | 32291 ft | 464 kts | 358° |
| 2026-04-28 12:13 | 50.91585 | -1.31888 | 32291 ft | 463 kts | 359° |
| 2026-04-28 12:14 | 50.97984 | -1.32891 | 32292 ft | 462 kts | 359° |
| 2026-04-28 12:14 | 51.03290 | -1.33724 | 32294 ft | 461 kts | 359° |
| 2026-04-28 12:15 | 51.08024 | -1.34469 | 32285 ft | 461 kts | 359° |
| 2026-04-28 12:15 | 51.14385 | -1.35474 | 32284 ft | 460 kts | 359° |
| 2026-04-28 12:16 | 51.20762 | -1.36484 | 32289 ft | 458 kts | 359° |
| 2026-04-28 12:16 | 51.27104 | -1.37494 | 32292 ft | 457 kts | 360° |
| 2026-04-28 12:17 | 51.33423 | -1.38502 | 32293 ft | 456 kts | 0° |
| 2026-04-28 12:17 | 51.39749 | -1.39509 | 32299 ft | 455 kts | 0° |
| 2026-04-28 12:18 | 51.46046 | -1.40515 | 32310 ft | 454 kts | 0° |
| 2026-04-28 12:18 | 51.52336 | -1.41523 | 32313 ft | 453 kts | 0° |
| 2026-04-28 12:19 | 51.58616 | -1.42532 | 32332 ft | 452 kts | 1° |
| 2026-04-28 12:19 | 51.64883 | -1.43545 | 32341 ft | 451 kts | 1° |
| 2026-04-28 12:20 | 51.71116 | -1.44556 | 32344 ft | 450 kts | 1° |
| 2026-04-28 12:20 | 51.77310 | -1.45563 | 32341 ft | 449 kts | 1° |
| 2026-04-28 12:21 | 51.83518 | -1.46574 | 32343 ft | 447 kts | 2° |
| 2026-04-28 12:21 | 51.89745 | -1.47590 | 32345 ft | 446 kts | 2° |
| 2026-04-28 12:22 | 51.95922 | -1.48601 | 32345 ft | 445 kts | 2° |
| 2026-04-28 12:22 | 52.02085 | -1.49613 | 32386 ft | 444 kts | 2° |
| 2026-04-28 12:23 | 52.08197 | -1.50618 | 32385 ft | 444 kts | 2° |
| 2026-04-28 12:23 | 52.14337 | -1.51632 | 32390 ft | 442 kts | 2° |
| 2026-04-28 12:24 | 52.20458 | -1.52645 | 32396 ft | 442 kts | 3° |
| 2026-04-28 12:24 | 52.26562 | -1.53657 | 32390 ft | 440 kts | 3° |
| 2026-04-28 12:25 | 52.32664 | -1.54672 | 32388 ft | 440 kts | 3° |
| 2026-04-28 12:25 | 52.38749 | -1.55688 | 32393 ft | 439 kts | 3° |
| 2026-04-28 12:26 | 52.44836 | -1.56706 | 32396 ft | 439 kts | 4° |
| 2026-04-28 12:26 | 52.50818 | -1.57708 | 32393 ft | 438 kts | 4° |
| 2026-04-28 12:27 | 52.56942 | -1.58739 | 32351 ft | 438 kts | 4° |
| 2026-04-28 12:27 | 52.63006 | -1.59761 | 32349 ft | 438 kts | 4° |
| 2026-04-28 12:28 | 52.69064 | -1.60785 | 32349 ft | 437 kts | 4° |
| 2026-04-28 12:28 | 52.75123 | -1.61813 | 32359 ft | 437 kts | 4° |
| 2026-04-28 12:29 | 52.84141 | -1.63349 | 32414 ft | 437 kts | 3° |
| 2026-04-28 12:30 | 52.90198 | -1.64384 | 32414 ft | 437 kts | 3° |
| 2026-04-28 12:30 | 52.96210 | -1.65414 | 32409 ft | 437 kts | 3° |
| 2026-04-28 12:31 | 53.02260 | -1.66466 | 32408 ft | 438 kts | 1° |
| 2026-04-28 12:31 | 53.08302 | -1.68824 | 32408 ft | 454 kts | 350° |
| 2026-04-28 12:32 | 53.14248 | -1.72515 | 32408 ft | 455 kts | 349° |
| 2026-04-28 12:32 | 53.20190 | -1.76171 | 32413 ft | 455 kts | 349° |
| 2026-04-28 12:33 | 53.26134 | -1.79860 | 32416 ft | 455 kts | 349° |
| 2026-04-28 12:33 | 53.32069 | -1.83565 | 32417 ft | 456 kts | 348° |
| 2026-04-28 12:34 | 53.38013 | -1.87288 | 32418 ft | 455 kts | 348° |
| 2026-04-28 12:34 | 53.43957 | -1.91024 | 32416 ft | 455 kts | 348° |
| 2026-04-28 12:35 | 53.49890 | -1.94764 | 32424 ft | 455 kts | 348° |
| 2026-04-28 12:35 | 53.55832 | -1.98519 | 32420 ft | 456 kts | 348° |
| 2026-04-28 12:36 | 53.61768 | -2.02283 | 32429 ft | 456 kts | 348° |
| 2026-04-28 12:36 | 53.67537 | -2.05952 | 32426 ft | 456 kts | 347° |
| 2026-04-28 12:37 | 53.73485 | -2.09746 | 32431 ft | 456 kts | 347° |
| 2026-04-28 12:37 | 53.79452 | -2.13699 | 32431 ft | 457 kts | 346° |
| 2026-04-28 12:38 | 53.85319 | -2.17745 | 32436 ft | 458 kts | 346° |
| 2026-04-28 12:38 | 53.91235 | -2.21814 | 32440 ft | 457 kts | 346° |
| 2026-04-28 12:39 | 53.96143 | -2.25188 | 32444 ft | 457 kts | 346° |
| 2026-04-28 12:39 | 54.02022 | -2.29379 | 32446 ft | 462 kts | 341° |
| 2026-04-28 12:40 | 54.07697 | -2.34670 | 32445 ft | 464 kts | 339° |
| 2026-04-28 12:40 | 54.13369 | -2.39964 | 32448 ft | 464 kts | 339° |
| 2026-04-28 12:41 | 54.19027 | -2.45275 | 32453 ft | 464 kts | 338° |
| 2026-04-28 12:41 | 54.24688 | -2.50615 | 32453 ft | 464 kts | 338° |
| 2026-04-28 12:42 | 54.30343 | -2.55968 | 32452 ft | 464 kts | 338° |
| 2026-04-28 12:42 | 54.35988 | -2.61328 | 32460 ft | 464 kts | 338° |
| 2026-04-28 12:43 | 54.41633 | -2.66705 | 32464 ft | 464 kts | 338° |
| 2026-04-28 12:43 | 54.47273 | -2.72093 | 32459 ft | 464 kts | 337° |
| 2026-04-28 12:44 | 54.52917 | -2.77503 | 32465 ft | 464 kts | 337° |
| 2026-04-28 12:44 | 54.58547 | -2.82916 | 32459 ft | 464 kts | 337° |
| 2026-04-28 12:45 | 54.64172 | -2.88344 | 32161 ft | 460 kts | 337° |
| 2026-04-28 12:45 | 54.66960 | -2.91041 | 31459 ft | 459 kts | 336° |
| 2026-04-28 12:45 | 54.69747 | -2.93739 | 30814 ft | 455 kts | 336° |
| 2026-04-28 12:45 | 54.72487 | -2.96399 | 30154 ft | 450 kts | 336° |
| 2026-04-28 12:46 | 54.75201 | -2.99038 | 29475 ft | 445 kts | 336° |
| 2026-04-28 12:46 | 54.77888 | -3.01653 | 28770 ft | 440 kts | 336° |
| 2026-04-28 12:46 | 54.80544 | -3.04241 | 28078 ft | 436 kts | 336° |
| 2026-04-28 12:46 | 54.83180 | -3.06813 | 27412 ft | 432 kts | 336° |
| 2026-04-28 12:47 | 54.85793 | -3.09367 | 26809 ft | 427 kts | 336° |
| 2026-04-28 12:47 | 54.88366 | -3.11889 | 26132 ft | 424 kts | 336° |
| 2026-04-28 12:47 | 54.90933 | -3.14406 | 25491 ft | 421 kts | 336° |
| 2026-04-28 12:47 | 54.93478 | -3.16906 | 24865 ft | 418 kts | 336° |
| 2026-04-28 12:48 | 54.95998 | -3.19387 | 24266 ft | 415 kts | 335° |
| 2026-04-28 12:48 | 54.98475 | -3.21827 | 23620 ft | 412 kts | 335° |
| 2026-04-28 12:48 | 55.00988 | -3.24308 | 22970 ft | 407 kts | 335° |
| 2026-04-28 12:48 | 55.03412 | -3.26704 | 22339 ft | 403 kts | 335° |
| 2026-04-28 12:49 | 55.05851 | -3.29118 | 21705 ft | 400 kts | 335° |
| 2026-04-28 12:49 | 55.08285 | -3.31529 | 21083 ft | 396 kts | 335° |
| 2026-04-28 12:49 | 55.10660 | -3.33886 | 20664 ft | 390 kts | 335° |
| 2026-04-28 12:49 | 55.13026 | -3.36234 | 20518 ft | 392 kts | 335° |
| 2026-04-28 12:50 | 55.15395 | -3.38587 | 20474 ft | 390 kts | 335° |
| 2026-04-28 12:50 | 55.17764 | -3.40944 | 20470 ft | 393 kts | 335° |
| 2026-04-28 12:50 | 55.20109 | -3.43280 | 20470 ft | 393 kts | 335° |
| 2026-04-28 12:50 | 55.22486 | -3.45656 | 20469 ft | 393 kts | 335° |
| 2026-04-28 12:51 | 55.24860 | -3.48029 | 20471 ft | 392 kts | 335° |
| 2026-04-28 12:51 | 55.27227 | -3.50400 | 20468 ft | 392 kts | 335° |
| 2026-04-28 12:51 | 55.29597 | -3.52777 | 20466 ft | 393 kts | 335° |
| 2026-04-28 12:51 | 55.31976 | -3.55167 | 20468 ft | 393 kts | 335° |
| 2026-04-28 12:52 | 55.34342 | -3.57546 | 20467 ft | 393 kts | 335° |
| 2026-04-28 12:52 | 55.36711 | -3.59934 | 20421 ft | 389 kts | 335° |
| 2026-04-28 12:52 | 55.39034 | -3.62282 | 20333 ft | 380 kts | 335° |
| 2026-04-28 12:52 | 55.41291 | -3.64569 | 20225 ft | 367 kts | 335° |
| 2026-04-28 12:53 | 55.43467 | -3.66777 | 19998 ft | 357 kts | 336° |
| 2026-04-28 12:53 | 55.45608 | -3.68943 | 19490 ft | 355 kts | 336° |
| 2026-04-28 12:53 | 55.47771 | -3.71124 | 18802 ft | 360 kts | 336° |
| 2026-04-28 12:53 | 55.49957 | -3.73333 | 17985 ft | 363 kts | 335° |
| 2026-04-28 12:54 | 55.52130 | -3.75537 | 17201 ft | 367 kts | 335° |
| 2026-04-28 12:54 | 55.54351 | -3.77796 | 16447 ft | 369 kts | 335° |
| 2026-04-28 12:54 | 55.56585 | -3.80072 | 15694 ft | 371 kts | 335° |
| 2026-04-28 12:54 | 55.58819 | -3.82351 | 14973 ft | 372 kts | 334° |
| 2026-04-28 12:55 | 55.61054 | -3.84636 | 14241 ft | 368 kts | 334° |
| 2026-04-28 12:55 | 55.62694 | -3.86315 | 13644 ft | 369 kts | 334° |
| 2026-04-28 12:55 | 55.64918 | -3.88589 | 12859 ft | 370 kts | 334° |
| 2026-04-28 12:55 | 55.67151 | -3.90877 | 12101 ft | 371 kts | 333° |
| 2026-04-28 12:56 | 55.69209 | -3.93638 | 11356 ft | 377 kts | 317° |
| 2026-04-28 12:56 | 55.70727 | -3.97520 | 10622 ft | 382 kts | 297° |
| 2026-04-28 12:56 | 55.71473 | -4.02011 | 9869 ft | 385 kts | 279° |
| 2026-04-28 12:56 | 55.71732 | -4.06688 | 9559 ft | 373 kts | 276° |
| 2026-04-28 12:57 | 55.71942 | -4.11239 | 9385 ft | 357 kts | 276° |
| 2026-04-28 12:57 | 55.72152 | -4.15536 | 9234 ft | 343 kts | 276° |
| 2026-04-28 12:57 | 55.72337 | -4.19674 | 9074 ft | 330 kts | 274° |
| 2026-04-28 12:57 | 55.72291 | -4.23665 | 8959 ft | 318 kts | 265° |
| 2026-04-28 12:58 | 55.72038 | -4.27483 | 8825 ft | 305 kts | 264° |
| 2026-04-28 12:58 | 55.71776 | -4.31139 | 8702 ft | 293 kts | 264° |
| 2026-04-28 12:58 | 55.71523 | -4.34695 | 8353 ft | 290 kts | 264° |
| 2026-04-28 12:58 | 55.71268 | -4.38298 | 7692 ft | 299 kts | 264° |
| 2026-04-28 12:59 | 55.71009 | -4.42065 | 6744 ft | 317 kts | 264° |
| 2026-04-28 12:59 | 55.70748 | -4.46060 | 5687 ft | 334 kts | 264° |
| 2026-04-28 12:59 | 55.70483 | -4.50187 | 4638 ft | 340 kts | 264° |
| 2026-04-28 12:59 | 55.70222 | -4.54318 | 3963 ft | 332 kts | 264° |
| 2026-04-28 13:00 | 55.69976 | -4.58269 | 3665 ft | 312 kts | 264° |
| 2026-04-28 13:00 | 55.69743 | -4.61972 | 3490 ft | 291 kts | 264° |
| 2026-04-28 13:00 | 55.69525 | -4.65465 | 3167 ft | 277 kts | 264° |
| 2026-04-28 13:00 | 55.69346 | -4.68724 | 3001 ft | 260 kts | 265° |
| 2026-04-28 13:01 | 55.69083 | -4.71787 | 2960 ft | 238 kts | 250° |
| 2026-04-28 13:01 | 55.68561 | -4.74434 | 2966 ft | 218 kts | 253° |
| 2026-04-28 13:01 | 55.68487 | -4.77157 | 2970 ft | 226 kts | 287° |
| 2026-04-28 13:01 | 55.69245 | -4.79518 | 2949 ft | 219 kts | 321° |
| 2026-04-28 13:02 | 55.70531 | -4.80803 | 2788 ft | 207 kts | 343° |
| 2026-04-28 13:02 | 55.71845 | -4.81073 | 2717 ft | 180 kts | 17° |
| 2026-04-28 13:02 | 55.72793 | -4.79949 | 2582 ft | 157 kts | 57° |
| 2026-04-28 13:02 | 55.73300 | -4.78331 | 2423 ft | 145 kts | 67° |
| 2026-04-28 13:03 | 55.73721 | -4.76757 | 2290 ft | 134 kts | 66° |
| 2026-04-28 13:03 | 55.74115 | -4.75304 | 2072 ft | 129 kts | 66° |
| 2026-04-28 13:03 | 55.74486 | -4.73962 | 1968 ft | 116 kts | 65° |
| 2026-04-28 13:03 | 55.74877 | -4.72525 | 1986 ft | 138 kts | 66° |
| 2026-04-28 13:04 | 55.75275 | -4.71039 | 1975 ft | 130 kts | 66° |
| 2026-04-28 13:04 | 55.75651 | -4.69622 | 1993 ft | 127 kts | 66° |
| 2026-04-28 13:04 | 55.76034 | -4.68144 | 1985 ft | 133 kts | 66° |
| 2026-04-28 13:04 | 55.76418 | -4.66686 | 1996 ft | 131 kts | 65° |
| 2026-04-28 13:05 | 55.76800 | -4.65202 | 1979 ft | 131 kts | 65° |
| 2026-04-28 13:05 | 55.77177 | -4.63744 | 1999 ft | 129 kts | 66° |
| 2026-04-28 13:05 | 55.77560 | -4.62276 | 1998 ft | 134 kts | 65° |
| 2026-04-28 13:05 | 55.77994 | -4.60871 | 1992 ft | 128 kts | 54° |
| 2026-04-28 13:06 | 55.78621 | -4.59701 | 1997 ft | 137 kts | 47° |
| 2026-04-28 13:06 | 55.79293 | -4.58508 | 1982 ft | 132 kts | 48° |
| 2026-04-28 13:06 | 55.79930 | -4.57342 | 2002 ft | 135 kts | 47° |
| 2026-04-28 13:06 | 55.80539 | -4.56056 | 1794 ft | 137 kts | 53° |
| 2026-04-28 13:07 | 55.81122 | -4.54745 | 1598 ft | 134 kts | 51° |
| 2026-04-28 13:07 | 55.81732 | -4.53525 | 1411 ft | 130 kts | 49° |
| 2026-04-28 13:07 | 55.82354 | -4.52357 | 1236 ft | 133 kts | 49° |
| 2026-04-28 13:07 | 55.82776 | -4.51568 | 1105 ft | 131 kts | 49° |
| 2026-04-28 13:08 | 55.83597 | -4.50037 | 869 ft | 129 kts | 48° |
| 2026-04-28 13:08 | 55.84203 | -4.48912 | 690 ft | 128 kts | 48° |
| 2026-04-28 13:08 | 55.84810 | -4.47780 | 512 ft | 124 kts | 48° |
| 2026-04-28 13:08 | 55.85245 | -4.46967 | 392 ft | 126 kts | 47° |
| 2026-04-28 13:09 | 55.85858 | -4.45821 | 209 ft | 127 kts | 46° |
| 2026-04-28 13:09 | 55.86466 | -4.44685 | 46 ft | 128 kts | 46° |
| 2026-04-28 13:09 | 55.86839 | -4.43989 | 47 ft | 110 kts | 46° |
| 2026-04-28 13:09 | 55.87173 | -4.43363 | 28 ft | 36 kts | 46° |
| 2026-04-28 13:10 | 55.87266 | -4.43185 | 28 ft | 19 kts | 47° |
| 2026-04-28 13:10 | 55.87363 | -4.42996 | 28 ft | 23 kts | 47° |
| 2026-04-28 13:10 | 55.87436 | -4.42859 | 28 ft | 23 kts | 45° |
| 2026-04-28 13:10 | 55.87551 | -4.42651 | 28 ft | 23 kts | 45° |
| 2026-04-28 13:11 | 55.87665 | -4.42445 | 28 ft | 23 kts | 45° |
| 2026-04-28 13:11 | 55.87749 | -4.42234 | 28 ft | 15 kts | 103° |
| 2026-04-28 13:11 | 55.87668 | -4.42149 | 28 ft | 14 kts | 174° |
| 2026-04-28 13:11 | 55.87584 | -4.42231 | 28 ft | 15 kts | 224° |
| 2026-04-28 13:12 | 55.87501 | -4.42377 | 28 ft | 19 kts | 225° |
| 2026-04-28 13:12 | 55.87401 | -4.42557 | 28 ft | 22 kts | 224° |
| 2026-04-28 13:12 | 55.87265 | -4.42672 | 28 ft | 22 kts | 200° |
| 2026-04-28 13:12 | 55.87110 | -4.42776 | 28 ft | 25 kts | 201° |
| 2026-04-28 13:13 | 55.86936 | -4.42900 | 28 ft | 28 kts | 204° |
| 2026-04-28 13:13 | 55.86860 | -4.43010 | 28 ft | 9 kts | 240° |
| 2026-04-28 13:13 | 55.86829 | -4.43135 | 28 ft | 13 kts | 251° |
| 2026-04-28 13:13 | 55.86783 | -4.43281 | 28 ft | 14 kts | 201° |
| 2026-04-28 13:14 | 55.86698 | -4.43246 | 28 ft | 14 kts | 161° |
| 2026-04-28 13:14 | 55.86657 | -4.43167 | 28 ft | 9 kts | 81° |
| 2026-04-28 13:14 | 55.86664 | -4.43137 | 28 ft | 0 kts | 65° |
| 2026-04-28 13:14 | 55.86658 | -4.43164 | 28 ft | 4 kts | 65° |
| 2026-04-28 13:15 | 55.86657 | -4.43164 | 28 ft | 1 kts | 69° |
| 2026-04-28 13:15 | 55.86663 | -4.43128 | 28 ft | 0 kts | 74° |
| 2026-04-28 13:15 | 55.86663 | -4.43127 | 28 ft | 0 kts | 74° |